Alianca, Brazil
Current Conditions -  °F | °C
As of 1:00 AM on Monday 26 Jan 2015 (Local Time) from SBJP Reporting Station
Few Clouds Few Clouds  
Wind Chill: 75°   Ceiling: Unl
Heat Index: 75°   Visibility: 6mi
Dew Point: 70°   Wind: 5mph
Humidity: 83%   Direction: 170°S
Pressure: 29.94"   Gusts: NA
Location:  7.6°S, 35.23°W
Report Text: SBJP 260400Z 17004KT 9999 FEW020 24/21 Q1014
Loading
Personal Weather Stations






























Interactive Weather Map New forecast layout! Learn more

10-Day Weather Forecast

Advertisements
Track Severe Weather on mobile